Aérodrome :
LOGIN :

S'inscrire | Disclaimer

   EN    FR    IT 

 










Légende :    VFR   VFR Marginal   IFR   IFR Intensif   IFR Très Intensif
Visi : 
Plafond : 
>= 8 km
>= 3000ft
5 à 8 km
1000 à 3000 ft
1500m à 5 km
500 à 1000 ft
800 à 1500m
200 à 500 ft
< 800m
< 200 ft
Symboles :   Orages  Brouillard  Fortes neiges  Fortes précipitations  Vent > 20 kt
SIGMETs :   Divers  Orages  Givrage  Turbulence  Onde Orograph.  Cendres Volcan.






- Altitude de l'aérodrome : 510 ft


LJCE - Cerklje

DERNIER METAR :
  • 090200Z AUTO 22008KT 9999 NSC 09/06 Q1010

METARs EXPIRÉS :
  • 090130Z AUTO 22008KT 9999 NSC 09/05 Q1010
  • 090100Z AUTO 23009KT 9999 NSC 09/05 Q1010
  • 090030Z AUTO 24008KT 9999 NSC 09/05 Q1011
  • 090000Z AUTO 23009KT 9999 NSC 09/05 Q1011
  • 082330Z AUTO 24007KT 9999 NSC 09/05 Q1012

TAF TAF LJCE
Valide du 09 à 00h jusqu'au 09 à 09h UTC


082300Z 0900/0909 25005KT CAVOK
BECMG 0903/0906 SCT030 BKN055
TEMPO 0906/0909 FEW030 SCT060



MET'MAP, la Météo Aéronautique d'un coup d'oeil ! - Copyright ORBIFLY Décembre 2007 - Disclaimer

ORBIFLY MET'MAP TEAM :

Programmation & Développement : Alexandra Zaïnal
Sur une idée originale de : Baudouin d'Aumeries
Assistance à la programmation : Marc-Olivier Méhu
Soutien technique & logistique : Manuel Goepfert

Contact : metmap@orbifly.com




SOURCES & CREDITS :

   NOAA